Merna, Wyoming
Current Conditions -  °F | °C
As of 1:53 PM on Tuesday 27 Jan 2015 (Local Time) from KBPI Reporting Station
Broken Clouds Broken Clouds  
Wind Chill: 38°   Ceiling: 10000
Heat Index: 38°   Visibility: 10mi
Dew Point: 23°   Wind: 0mph
Humidity: 55%   Direction: NA
Pressure: 30.18"   Gusts: NA
Location:  42.95°N, 110.34°W
Report Text: KBPI 272053Z AUTO 00000KT 10SM BKN100 BKN120 03/M05 A3018 RMK AO2 SLP231 T00331050 58023
Loading
Personal Weather Stations






























Interactive Weather Map New forecast layout! Learn more

10-Day Weather Forecast

Advertisements
Track Severe Weather on mobile